sensor_id;sensor_type;location;lat;lon;timestamp;P1;durP1;ratioP1;P2;durP2;ratioP2
3099;SDS011;1560;52.746;13.474;2023-07-24T00:00:16;5.43;;;3.30;;
3099;SDS011;1560;52.746;13.474;2023-07-24T00:02:45;5.63;;;3.73;;
3099;SDS011;1560;52.746;13.474;2023-07-24T00:05:22;3.67;;;3.30;;
3099;SDS011;1560;52.746;13.474;2023-07-24T00:10:27;3.77;;;3.20;;
3099;SDS011;1560;52.746;13.474;2023-07-24T00:12:55;3.67;;;3.13;;
3099;SDS011;1560;52.746;13.474;2023-07-24T00:15:24;3.80;;;2.80;;
3099;SDS011;1560;52.746;13.474;2023-07-24T00:17:52;5.67;;;3.47;;
3099;SDS011;1560;52.746;13.474;2023-07-24T00:22:57;5.03;;;3.40;;
3099;SDS011;1560;52.746;13.474;2023-07-24T00:25:26;6.83;;;4.43;;
3099;SDS011;1560;52.746;13.474;2023-07-24T00:30:30;5.60;;;3.80;;
3099;SDS011;1560;52.746;13.474;2023-07-24T00:35:35;3.40;;;3.00;;
3099;SDS011;1560;52.746;13.474;2023-07-24T00:38:03;4.60;;;3.23;;
3099;SDS011;1560;52.746;13.474;2023-07-24T00:40:32;5.70;;;3.07;;
3099;SDS011;1560;52.746;13.474;2023-07-24T00:45:37;4.43;;;3.20;;
3099;SDS011;1560;52.746;13.474;2023-07-24T00:48:06;4.43;;;3.17;;
3099;SDS011;1560;52.746;13.474;2023-07-24T00:50:43;3.53;;;2.87;;
3099;SDS011;1560;52.746;13.474;2023-07-24T00:53:12;5.00;;;3.77;;
3099;SDS011;1560;52.746;13.474;2023-07-24T00:55:42;6.53;;;3.70;;
3099;SDS011;1560;52.746;13.474;2023-07-24T00:58:11;5.60;;;3.40;;
3099;SDS011;1560;52.746;13.474;2023-07-24T01:00:40;6.40;;;4.03;;
3099;SDS011;1560;52.746;13.474;2023-07-24T01:03:09;6.40;;;3.70;;
3099;SDS011;1560;52.746;13.474;2023-07-24T01:08:15;4.60;;;2.90;;
3099;SDS011;1560;52.746;13.474;2023-07-24T01:10:44;5.40;;;4.03;;
3099;SDS011;1560;52.746;13.474;2023-07-24T01:13:14;7.00;;;3.20;;
3099;SDS011;1560;52.746;13.474;2023-07-24T01:18:21;7.43;;;3.07;;
3099;SDS011;1560;52.746;13.474;2023-07-24T01:20:52;5.37;;;2.87;;
3099;SDS011;1560;52.746;13.474;2023-07-24T01:23:27;6.90;;;3.50;;
3099;SDS011;1560;52.746;13.474;2023-07-24T01:28:35;3.73;;;3.00;;
3099;SDS011;1560;52.746;13.474;2023-07-24T01:33:39;4.10;;;3.27;;
3099;SDS011;1560;52.746;13.474;2023-07-24T01:36:08;4.17;;;2.50;;
3099;SDS011;1560;52.746;13.474;2023-07-24T01:38:38;4.10;;;2.93;;
3099;SDS011;1560;52.746;13.474;2023-07-24T01:43:43;4.37;;;3.40;;
3099;SDS011;1560;52.746;13.474;2023-07-24T01:46:12;4.80;;;3.43;;
3099;SDS011;1560;52.746;13.474;2023-07-24T01:48:41;4.40;;;3.20;;
3099;SDS011;1560;52.746;13.474;2023-07-24T01:51:09;5.20;;;3.20;;
3099;SDS011;1560;52.746;13.474;2023-07-24T01:53:38;5.47;;;3.40;;
3099;SDS011;1560;52.746;13.474;2023-07-24T01:58:42;4.73;;;3.30;;
3099;SDS011;1560;52.746;13.474;2023-07-24T02:01:11;3.70;;;2.83;;
3099;SDS011;1560;52.746;13.474;2023-07-24T02:03:40;5.07;;;2.83;;
3099;SDS011;1560;52.746;13.474;2023-07-24T02:08:45;4.23;;;3.37;;
3099;SDS011;1560;52.746;13.474;2023-07-24T02:13:51;3.43;;;2.80;;
3099;SDS011;1560;52.746;13.474;2023-07-24T02:16:19;4.50;;;3.03;;
3099;SDS011;1560;52.746;13.474;2023-07-24T02:18:49;4.57;;;3.03;;
3099;SDS011;1560;52.746;13.474;2023-07-24T02:21:18;5.53;;;3.37;;
3099;SDS011;1560;52.746;13.474;2023-07-24T02:26:22;4.87;;;3.30;;
3099;SDS011;1560;52.746;13.474;2023-07-24T02:28:51;5.13;;;3.20;;
3099;SDS011;1560;52.746;13.474;2023-07-24T02:31:28;4.30;;;2.90;;
3099;SDS011;1560;52.746;13.474;2023-07-24T02:36:33;4.87;;;3.00;;
3099;SDS011;1560;52.746;13.474;2023-07-24T02:39:02;5.20;;;3.27;;
3099;SDS011;1560;52.746;13.474;2023-07-24T02:41:31;5.20;;;3.20;;
3099;SDS011;1560;52.746;13.474;2023-07-24T02:43:59;6.50;;;3.60;;
3099;SDS011;1560;52.746;13.474;2023-07-24T02:46:29;4.73;;;2.60;;
3099;SDS011;1560;52.746;13.474;2023-07-24T02:49:06;3.90;;;2.70;;
3099;SDS011;1560;52.746;13.474;2023-07-24T02:51:35;4.63;;;3.57;;
3099;SDS011;1560;52.746;13.474;2023-07-24T02:54:04;3.80;;;3.20;;
3099;SDS011;1560;52.746;13.474;2023-07-24T02:56:32;5.73;;;4.13;;
3099;SDS011;1560;52.746;13.474;2023-07-24T03:01:38;4.90;;;3.00;;
3099;SDS011;1560;52.746;13.474;2023-07-24T03:04:06;3.50;;;2.90;;
3099;SDS011;1560;52.746;13.474;2023-07-24T03:06:35;4.10;;;2.63;;
3099;SDS011;1560;52.746;13.474;2023-07-24T03:09:12;5.87;;;3.03;;
3099;SDS011;1560;52.746;13.474;2023-07-24T03:11:41;4.10;;;3.10;;
3099;SDS011;1560;52.746;13.474;2023-07-24T03:16:45;4.27;;;2.97;;
3099;SDS011;1560;52.746;13.474;2023-07-24T03:19:14;4.50;;;2.50;;
3099;SDS011;1560;52.746;13.474;2023-07-24T03:21:43;4.87;;;2.63;;
3099;SDS011;1560;52.746;13.474;2023-07-24T03:26:48;5.70;;;3.33;;
3099;SDS011;1560;52.746;13.474;2023-07-24T03:31:53;4.60;;;3.20;;
3099;SDS011;1560;52.746;13.474;2023-07-24T03:34:21;4.40;;;2.93;;
3099;SDS011;1560;52.746;13.474;2023-07-24T03:36:50;4.20;;;2.77;;
3099;SDS011;1560;52.746;13.474;2023-07-24T03:39:19;5.57;;;2.43;;
3099;SDS011;1560;52.746;13.474;2023-07-24T03:41:48;3.40;;;2.20;;
3099;SDS011;1560;52.746;13.474;2023-07-24T03:44:17;4.57;;;3.20;;
3099;SDS011;1560;52.746;13.474;2023-07-24T03:46:45;3.23;;;2.27;;
3099;SDS011;1560;52.746;13.474;2023-07-24T03:49:14;4.67;;;2.47;;
3099;SDS011;1560;52.746;13.474;2023-07-24T03:51:42;3.20;;;2.10;;
3099;SDS011;1560;52.746;13.474;2023-07-24T03:54:20;4.17;;;2.10;;
3099;SDS011;1560;52.746;13.474;2023-07-24T03:59:25;3.50;;;2.27;;
3099;SDS011;1560;52.746;13.474;2023-07-24T04:04:29;4.80;;;2.70;;
3099;SDS011;1560;52.746;13.474;2023-07-24T04:06:58;5.33;;;2.80;;
3099;SDS011;1560;52.746;13.474;2023-07-24T04:09:27;4.10;;;2.57;;
3099;SDS011;1560;52.746;13.474;2023-07-24T04:14:32;4.00;;;2.20;;
3099;SDS011;1560;52.746;13.474;2023-07-24T04:17:01;4.07;;;2.47;;
3099;SDS011;1560;52.746;13.474;2023-07-24T04:19:29;2.80;;;2.30;;
3099;SDS011;1560;52.746;13.474;2023-07-24T04:24:34;3.13;;;2.30;;
3099;SDS011;1560;52.746;13.474;2023-07-24T04:27:04;4.53;;;2.57;;
3099;SDS011;1560;52.746;13.474;2023-07-24T04:29:32;3.90;;;2.50;;
3099;SDS011;1560;52.746;13.474;2023-07-24T04:34:37;4.00;;;2.87;;
3099;SDS011;1560;52.746;13.474;2023-07-24T04:37:06;5.87;;;3.20;;
3099;SDS011;1560;52.746;13.474;2023-07-24T04:39:35;6.27;;;2.33;;
3099;SDS011;1560;52.746;13.474;2023-07-24T04:42:05;3.33;;;2.50;;
3099;SDS011;1560;52.746;13.474;2023-07-24T04:47:10;4.40;;;2.40;;
3099;SDS011;1560;52.746;13.474;2023-07-24T04:49:39;6.77;;;2.50;;
3099;SDS011;1560;52.746;13.474;2023-07-24T04:52:07;4.90;;;3.07;;
3099;SDS011;1560;52.746;13.474;2023-07-24T04:54:36;4.73;;;2.87;;
3099;SDS011;1560;52.746;13.474;2023-07-24T04:57:05;3.93;;;2.70;;
3099;SDS011;1560;52.746;13.474;2023-07-24T04:59:33;3.40;;;2.43;;
3099;SDS011;1560;52.746;13.474;2023-07-24T05:04:38;3.33;;;2.30;;
3099;SDS011;1560;52.746;13.474;2023-07-24T05:07:08;3.80;;;2.43;;
3099;SDS011;1560;52.746;13.474;2023-07-24T05:09:36;3.10;;;2.43;;
3099;SDS011;1560;52.746;13.474;2023-07-24T05:14:42;5.90;;;2.60;;
3099;SDS011;1560;52.746;13.474;2023-07-24T05:17:10;3.40;;;2.47;;
3099;SDS011;1560;52.746;13.474;2023-07-24T05:22:15;5.80;;;3.00;;
3099;SDS011;1560;52.746;13.474;2023-07-24T05:24:43;4.20;;;2.67;;
3099;SDS011;1560;52.746;13.474;2023-07-24T05:27:12;4.80;;;2.90;;
3099;SDS011;1560;52.746;13.474;2023-07-24T05:29:42;3.70;;;2.73;;
3099;SDS011;1560;52.746;13.474;2023-07-24T05:32:11;4.57;;;3.10;;
3099;SDS011;1560;52.746;13.474;2023-07-24T05:34:39;5.57;;;3.73;;
3099;SDS011;1560;52.746;13.474;2023-07-24T05:37:08;3.70;;;2.57;;
3099;SDS011;1560;52.746;13.474;2023-07-24T05:39:36;4.13;;;2.87;;
3099;SDS011;1560;52.746;13.474;2023-07-24T05:42:05;4.47;;;3.10;;
3099;SDS011;1560;52.746;13.474;2023-07-24T05:44:34;4.97;;;3.40;;
3099;SDS011;1560;52.746;13.474;2023-07-24T05:47:03;6.43;;;3.50;;
3099;SDS011;1560;52.746;13.474;2023-07-24T05:49:40;5.07;;;2.73;;
3099;SDS011;1560;52.746;13.474;2023-07-24T05:54:45;5.63;;;3.80;;
3099;SDS011;1560;52.746;13.474;2023-07-24T05:57:14;4.20;;;3.13;;
3099;SDS011;1560;52.746;13.474;2023-07-24T05:59:42;4.53;;;3.10;;
3099;SDS011;1560;52.746;13.474;2023-07-24T06:02:11;6.27;;;3.23;;
3099;SDS011;1560;52.746;13.474;2023-07-24T06:04:39;4.80;;;3.10;;
3099;SDS011;1560;52.746;13.474;2023-07-24T06:09:44;4.10;;;3.10;;
3099;SDS011;1560;52.746;13.474;2023-07-24T06:12:13;6.73;;;4.47;;
3099;SDS011;1560;52.746;13.474;2023-07-24T06:14:41;6.23;;;3.30;;
3099;SDS011;1560;52.746;13.474;2023-07-24T06:17:10;6.97;;;4.30;;
3099;SDS011;1560;52.746;13.474;2023-07-24T06:19:39;5.60;;;3.83;;
3099;SDS011;1560;52.746;13.474;2023-07-24T06:22:07;5.17;;;3.60;;
3099;SDS011;1560;52.746;13.474;2023-07-24T06:24:36;5.60;;;3.30;;
3099;SDS011;1560;52.746;13.474;2023-07-24T06:29:41;4.20;;;2.50;;
3099;SDS011;1560;52.746;13.474;2023-07-24T06:32:09;4.90;;;2.40;;
3099;SDS011;1560;52.746;13.474;2023-07-24T06:34:38;3.17;;;2.57;;
3099;SDS011;1560;52.746;13.474;2023-07-24T06:37:07;3.67;;;2.50;;
3099;SDS011;1560;52.746;13.474;2023-07-24T06:39:44;5.43;;;2.57;;
3099;SDS011;1560;52.746;13.474;2023-07-24T06:42:12;3.10;;;2.40;;
3099;SDS011;1560;52.746;13.474;2023-07-24T06:44:41;4.03;;;2.33;;
3099;SDS011;1560;52.746;13.474;2023-07-24T06:47:09;4.70;;;2.67;;
3099;SDS011;1560;52.746;13.474;2023-07-24T06:49:38;5.93;;;2.37;;
3099;SDS011;1560;52.746;13.474;2023-07-24T06:52:07;5.10;;;2.63;;
3099;SDS011;1560;52.746;13.474;2023-07-24T06:54:44;3.77;;;2.07;;
3099;SDS011;1560;52.746;13.474;2023-07-24T06:57:13;5.13;;;2.20;;
3099;SDS011;1560;52.746;13.474;2023-07-24T06:59:41;3.57;;;1.97;;
3099;SDS011;1560;52.746;13.474;2023-07-24T07:02:10;4.60;;;3.07;;
3099;SDS011;1560;52.746;13.474;2023-07-24T07:04:39;3.67;;;2.70;;
3099;SDS011;1560;52.746;13.474;2023-07-24T07:09:43;3.10;;;2.40;;
3099;SDS011;1560;52.746;13.474;2023-07-24T07:12:12;3.53;;;2.50;;
3099;SDS011;1560;52.746;13.474;2023-07-24T07:14:40;3.30;;;2.70;;
3099;SDS011;1560;52.746;13.474;2023-07-24T07:17:09;3.70;;;2.37;;
3099;SDS011;1560;52.746;13.474;2023-07-24T07:22:14;3.37;;;2.40;;
3099;SDS011;1560;52.746;13.474;2023-07-24T07:24:42;4.47;;;3.00;;
3099;SDS011;1560;52.746;13.474;2023-07-24T07:27:13;4.00;;;2.60;;
3099;SDS011;1560;52.746;13.474;2023-07-24T07:29:43;4.00;;;2.60;;
3099;SDS011;1560;52.746;13.474;2023-07-24T07:32:12;4.03;;;2.73;;
3099;SDS011;1560;52.746;13.474;2023-07-24T07:34:40;3.40;;;2.07;;
3099;SDS011;1560;52.746;13.474;2023-07-24T07:39:45;3.73;;;2.90;;
3099;SDS011;1560;52.746;13.474;2023-07-24T07:42:14;3.63;;;2.10;;
3099;SDS011;1560;52.746;13.474;2023-07-24T07:44:42;3.27;;;2.67;;
3099;SDS011;1560;52.746;13.474;2023-07-24T07:47:11;2.63;;;1.90;;
3099;SDS011;1560;52.746;13.474;2023-07-24T07:52:16;4.13;;;2.60;;
3099;SDS011;1560;52.746;13.474;2023-07-24T07:54:46;2.83;;;2.47;;
3099;SDS011;1560;52.746;13.474;2023-07-24T07:57:15;2.70;;;2.30;;
3099;SDS011;1560;52.746;13.474;2023-07-24T07:59:44;3.00;;;2.23;;
3099;SDS011;1560;52.746;13.474;2023-07-24T08:02:12;4.17;;;2.47;;
3099;SDS011;1560;52.746;13.474;2023-07-24T08:04:41;3.33;;;2.00;;
3099;SDS011;1560;52.746;13.474;2023-07-24T08:07:10;3.83;;;2.40;;
3099;SDS011;1560;52.746;13.474;2023-07-24T08:09:47;3.73;;;2.80;;
3099;SDS011;1560;52.746;13.474;2023-07-24T08:12:15;2.93;;;2.17;;
3099;SDS011;1560;52.746;13.474;2023-07-24T08:14:44;3.03;;;2.30;;
3099;SDS011;1560;52.746;13.474;2023-07-24T08:17:13;3.40;;;2.20;;
3099;SDS011;1560;52.746;13.474;2023-07-24T08:19:41;2.97;;;1.90;;
3099;SDS011;1560;52.746;13.474;2023-07-24T08:22:10;3.40;;;2.53;;
3099;SDS011;1560;52.746;13.474;2023-07-24T08:24:47;2.83;;;2.10;;
3099;SDS011;1560;52.746;13.474;2023-07-24T08:27:17;3.47;;;2.47;;
3099;SDS011;1560;52.746;13.474;2023-07-24T08:29:46;2.90;;;2.40;;
3099;SDS011;1560;52.746;13.474;2023-07-24T08:32:16;3.50;;;2.53;;
3099;SDS011;1560;52.746;13.474;2023-07-24T08:34:44;2.80;;;2.17;;
3099;SDS011;1560;52.746;13.474;2023-07-24T08:37:13;3.53;;;2.43;;
3099;SDS011;1560;52.746;13.474;2023-07-24T08:39:41;3.30;;;2.20;;
3099;SDS011;1560;52.746;13.474;2023-07-24T08:42:11;3.47;;;2.37;;
3099;SDS011;1560;52.746;13.474;2023-07-24T08:44:40;4.00;;;2.17;;
3099;SDS011;1560;52.746;13.474;2023-07-24T08:47:10;2.63;;;2.10;;
3099;SDS011;1560;52.746;13.474;2023-07-24T08:49:40;3.43;;;2.40;;
3099;SDS011;1560;52.746;13.474;2023-07-24T08:52:10;4.27;;;2.33;;
3099;SDS011;1560;52.746;13.474;2023-07-24T08:57:15;4.40;;;2.50;;
3099;SDS011;1560;52.746;13.474;2023-07-24T09:02:20;3.03;;;2.37;;
3099;SDS011;1560;52.746;13.474;2023-07-24T09:04:49;3.43;;;2.20;;
3099;SDS011;1560;52.746;13.474;2023-07-24T09:07:17;3.13;;;2.13;;
3099;SDS011;1560;52.746;13.474;2023-07-24T09:12:23;3.20;;;1.97;;
3099;SDS011;1560;52.746;13.474;2023-07-24T09:15:00;2.67;;;1.73;;
3099;SDS011;1560;52.746;13.474;2023-07-24T09:20:07;2.70;;;1.80;;
3099;SDS011;1560;52.746;13.474;2023-07-24T09:22:37;3.97;;;2.50;;
3099;SDS011;1560;52.746;13.474;2023-07-24T09:25:15;2.70;;;1.80;;
3099;SDS011;1560;52.746;13.474;2023-07-24T09:30:20;3.77;;;2.10;;
3099;SDS011;1560;52.746;13.474;2023-07-24T09:32:52;4.57;;;2.20;;
3099;SDS011;1560;52.746;13.474;2023-07-24T09:35:21;5.10;;;2.10;;
3099;SDS011;1560;52.746;13.474;2023-07-24T09:38:00;3.30;;;2.50;;
3099;SDS011;1560;52.746;13.474;2023-07-24T09:43:14;3.20;;;2.30;;
3099;SDS011;1560;52.746;13.474;2023-07-24T09:45:46;5.30;;;2.10;;
3099;SDS011;1560;52.746;13.474;2023-07-24T09:48:16;2.70;;;2.00;;
3099;SDS011;1560;52.746;13.474;2023-07-24T09:50:46;3.70;;;1.90;;
3099;SDS011;1560;52.746;13.474;2023-07-24T09:53:17;2.97;;;2.10;;
3099;SDS011;1560;52.746;13.474;2023-07-24T09:55:49;3.00;;;2.50;;
3099;SDS011;1560;52.746;13.474;2023-07-24T09:58:21;2.93;;;2.20;;
3099;SDS011;1560;52.746;13.474;2023-07-24T10:03:26;4.03;;;2.43;;
3099;SDS011;1560;52.746;13.474;2023-07-24T10:05:56;3.53;;;2.20;;
3099;SDS011;1560;52.746;13.474;2023-07-24T10:08:24;3.83;;;2.30;;
3099;SDS011;1560;52.746;13.474;2023-07-24T10:10:53;2.90;;;1.90;;
3099;SDS011;1560;52.746;13.474;2023-07-24T10:13:22;2.90;;;1.80;;
3099;SDS011;1560;52.746;13.474;2023-07-24T10:15:52;2.40;;;2.20;;
3099;SDS011;1560;52.746;13.474;2023-07-24T10:21:02;3.03;;;1.80;;
3099;SDS011;1560;52.746;13.474;2023-07-24T10:23:33;3.40;;;2.47;;
3099;SDS011;1560;52.746;13.474;2023-07-24T10:26:03;3.60;;;2.33;;
3099;SDS011;1560;52.746;13.474;2023-07-24T10:28:32;4.53;;;2.77;;
3099;SDS011;1560;52.746;13.474;2023-07-24T10:31:04;3.27;;;2.67;;
3099;SDS011;1560;52.746;13.474;2023-07-24T10:33:35;4.07;;;2.40;;
3099;SDS011;1560;52.746;13.474;2023-07-24T10:36:07;3.70;;;2.63;;
3099;SDS011;1560;52.746;13.474;2023-07-24T10:38:39;4.80;;;2.80;;
3099;SDS011;1560;52.746;13.474;2023-07-24T10:41:09;4.13;;;2.43;;
3099;SDS011;1560;52.746;13.474;2023-07-24T10:43:41;6.20;;;2.67;;
3099;SDS011;1560;52.746;13.474;2023-07-24T10:46:11;4.23;;;2.73;;
3099;SDS011;1560;52.746;13.474;2023-07-24T10:48:42;3.30;;;2.50;;
3099;SDS011;1560;52.746;13.474;2023-07-24T10:51:11;3.80;;;2.67;;
3099;SDS011;1560;52.746;13.474;2023-07-24T10:53:42;3.63;;;3.00;;
3099;SDS011;1560;52.746;13.474;2023-07-24T10:56:12;5.00;;;2.83;;
3099;SDS011;1560;52.746;13.474;2023-07-24T10:58:41;4.17;;;2.83;;
3099;SDS011;1560;52.746;13.474;2023-07-24T11:01:09;4.97;;;3.07;;
3099;SDS011;1560;52.746;13.474;2023-07-24T11:03:41;4.43;;;2.70;;
3099;SDS011;1560;52.746;13.474;2023-07-24T11:06:12;3.33;;;2.50;;
3099;SDS011;1560;52.746;13.474;2023-07-24T11:11:18;3.93;;;2.60;;
3099;SDS011;1560;52.746;13.474;2023-07-24T11:13:46;5.70;;;3.57;;
3099;SDS011;1560;52.746;13.474;2023-07-24T11:16:15;3.97;;;3.10;;
3099;SDS011;1560;52.746;13.474;2023-07-24T11:18:47;4.00;;;3.00;;
3099;SDS011;1560;52.746;13.474;2023-07-24T11:21:18;5.20;;;3.80;;
3099;SDS011;1560;52.746;13.474;2023-07-24T11:26:24;4.43;;;3.20;;
3099;SDS011;1560;52.746;13.474;2023-07-24T11:31:36;4.30;;;3.53;;
3099;SDS011;1560;52.746;13.474;2023-07-24T11:34:05;5.80;;;3.33;;
3099;SDS011;1560;52.746;13.474;2023-07-24T11:36:34;5.30;;;3.50;;
3099;SDS011;1560;52.746;13.474;2023-07-24T11:39:03;4.70;;;3.33;;
3099;SDS011;1560;52.746;13.474;2023-07-24T11:41:32;3.90;;;2.80;;
3099;SDS011;1560;52.746;13.474;2023-07-24T11:46:36;6.10;;;3.50;;
3099;SDS011;1560;52.746;13.474;2023-07-24T11:49:05;7.50;;;2.97;;
3099;SDS011;1560;52.746;13.474;2023-07-24T11:51:42;5.67;;;3.90;;
3099;SDS011;1560;52.746;13.474;2023-07-24T11:54:11;5.77;;;3.60;;
3099;SDS011;1560;52.746;13.474;2023-07-24T11:56:40;7.47;;;4.00;;
3099;SDS011;1560;52.746;13.474;2023-07-24T11:59:17;5.57;;;3.67;;
3099;SDS011;1560;52.746;13.474;2023-07-24T12:04:22;6.70;;;3.40;;
3099;SDS011;1560;52.746;13.474;2023-07-24T12:06:50;7.30;;;4.23;;
3099;SDS011;1560;52.746;13.474;2023-07-24T12:09:20;5.23;;;3.93;;
3099;SDS011;1560;52.746;13.474;2023-07-24T12:11:48;4.60;;;3.50;;
3099;SDS011;1560;52.746;13.474;2023-07-24T12:14:17;6.60;;;4.33;;
3099;SDS011;1560;52.746;13.474;2023-07-24T12:16:45;8.90;;;4.40;;
3099;SDS011;1560;52.746;13.474;2023-07-24T12:19:23;6.73;;;5.40;;
3099;SDS011;1560;52.746;13.474;2023-07-24T12:21:52;8.83;;;4.30;;
3099;SDS011;1560;52.746;13.474;2023-07-24T12:24:21;5.80;;;3.50;;
3099;SDS011;1560;52.746;13.474;2023-07-24T12:26:49;7.93;;;4.67;;
3099;SDS011;1560;52.746;13.474;2023-07-24T12:29:18;6.37;;;3.50;;
3099;SDS011;1560;52.746;13.474;2023-07-24T12:31:46;6.27;;;4.10;;
3099;SDS011;1560;52.746;13.474;2023-07-24T12:34:15;4.70;;;3.37;;
3099;SDS011;1560;52.746;13.474;2023-07-24T12:36:44;6.40;;;3.77;;
3099;SDS011;1560;52.746;13.474;2023-07-24T12:39:14;6.43;;;3.70;;
3099;SDS011;1560;52.746;13.474;2023-07-24T12:41:42;5.03;;;3.53;;
3099;SDS011;1560;52.746;13.474;2023-07-24T12:44:11;6.00;;;3.23;;
3099;SDS011;1560;52.746;13.474;2023-07-24T12:46:39;5.77;;;3.20;;
3099;SDS011;1560;52.746;13.474;2023-07-24T12:49:08;5.07;;;3.60;;
3099;SDS011;1560;52.746;13.474;2023-07-24T12:54:13;9.83;;;4.67;;
3099;SDS011;1560;52.746;13.474;2023-07-24T12:56:41;5.93;;;3.70;;
3099;SDS011;1560;52.746;13.474;2023-07-24T12:59:10;4.30;;;2.93;;
3099;SDS011;1560;52.746;13.474;2023-07-24T13:01:38;8.03;;;3.73;;
3099;SDS011;1560;52.746;13.474;2023-07-24T13:04:07;4.73;;;4.20;;
3099;SDS011;1560;52.746;13.474;2023-07-24T13:06:36;7.63;;;3.60;;
3099;SDS011;1560;52.746;13.474;2023-07-24T13:09:05;4.40;;;2.97;;
3099;SDS011;1560;52.746;13.474;2023-07-24T13:11:34;5.60;;;3.37;;
3099;SDS011;1560;52.746;13.474;2023-07-24T13:14:03;4.43;;;3.20;;
3099;SDS011;1560;52.746;13.474;2023-07-24T13:16:32;3.93;;;2.90;;
3099;SDS011;1560;52.746;13.474;2023-07-24T13:19:00;5.63;;;3.53;;
3099;SDS011;1560;52.746;13.474;2023-07-24T13:21:29;5.67;;;3.07;;
3099;SDS011;1560;52.746;13.474;2023-07-24T13:26:33;6.57;;;3.50;;
3099;SDS011;1560;52.746;13.474;2023-07-24T13:31:38;4.30;;;3.37;;
3099;SDS011;1560;52.746;13.474;2023-07-24T13:34:07;4.23;;;2.73;;
3099;SDS011;1560;52.746;13.474;2023-07-24T13:36:36;3.60;;;2.40;;
3099;SDS011;1560;52.746;13.474;2023-07-24T13:39:13;6.70;;;3.17;;
3099;SDS011;1560;52.746;13.474;2023-07-24T13:41:42;4.57;;;2.60;;
3099;SDS011;1560;52.746;13.474;2023-07-24T13:44:10;6.10;;;3.30;;
3099;SDS011;1560;52.746;13.474;2023-07-24T13:49:15;3.50;;;2.43;;
3099;SDS011;1560;52.746;13.474;2023-07-24T13:51:44;5.73;;;2.87;;
3099;SDS011;1560;52.746;13.474;2023-07-24T13:54:12;3.10;;;2.37;;
3099;SDS011;1560;52.746;13.474;2023-07-24T13:59:17;7.07;;;4.27;;
3099;SDS011;1560;52.746;13.474;2023-07-24T14:01:45;3.67;;;2.33;;
3099;SDS011;1560;52.746;13.474;2023-07-24T14:04:14;5.17;;;2.77;;
3099;SDS011;1560;52.746;13.474;2023-07-24T14:09:19;3.97;;;2.10;;
3099;SDS011;1560;52.746;13.474;2023-07-24T14:11:47;5.00;;;2.93;;
3099;SDS011;1560;52.746;13.474;2023-07-24T14:14:17;4.17;;;2.50;;
3099;SDS011;1560;52.746;13.474;2023-07-24T14:19:22;3.47;;;1.90;;
3099;SDS011;1560;52.746;13.474;2023-07-24T14:24:27;6.23;;;2.83;;
3099;SDS011;1560;52.746;13.474;2023-07-24T14:26:55;4.63;;;2.40;;
3099;SDS011;1560;52.746;13.474;2023-07-24T14:29:24;3.53;;;2.30;;
3099;SDS011;1560;52.746;13.474;2023-07-24T14:31:53;4.20;;;2.43;;
3099;SDS011;1560;52.746;13.474;2023-07-24T14:34:21;3.40;;;2.57;;
3099;SDS011;1560;52.746;13.474;2023-07-24T14:36:50;4.30;;;2.47;;
3099;SDS011;1560;52.746;13.474;2023-07-24T14:39:19;3.77;;;3.03;;
3099;SDS011;1560;52.746;13.474;2023-07-24T14:41:47;6.37;;;2.20;;
3099;SDS011;1560;52.746;13.474;2023-07-24T14:46:52;3.60;;;2.40;;
3099;SDS011;1560;52.746;13.474;2023-07-24T14:49:21;3.93;;;2.73;;
3099;SDS011;1560;52.746;13.474;2023-07-24T14:51:49;5.20;;;2.50;;
3099;SDS011;1560;52.746;13.474;2023-07-24T14:54:18;3.60;;;2.40;;
3099;SDS011;1560;52.746;13.474;2023-07-24T14:56:46;3.87;;;2.67;;
3099;SDS011;1560;52.746;13.474;2023-07-24T14:59:16;3.50;;;2.57;;
3099;SDS011;1560;52.746;13.474;2023-07-24T15:01:44;3.90;;;2.60;;
3099;SDS011;1560;52.746;13.474;2023-07-24T15:04:13;4.20;;;2.67;;
3099;SDS011;1560;52.746;13.474;2023-07-24T15:09:18;3.83;;;2.20;;
3099;SDS011;1560;52.746;13.474;2023-07-24T15:11:46;2.80;;;2.20;;
3099;SDS011;1560;52.746;13.474;2023-07-24T15:14:24;3.67;;;2.70;;
3099;SDS011;1560;52.746;13.474;2023-07-24T15:16:52;4.03;;;2.60;;
3099;SDS011;1560;52.746;13.474;2023-07-24T15:19:21;2.97;;;2.37;;
3099;SDS011;1560;52.746;13.474;2023-07-24T15:21:50;3.33;;;2.77;;
3099;SDS011;1560;52.746;13.474;2023-07-24T15:24:18;5.47;;;3.10;;
3099;SDS011;1560;52.746;13.474;2023-07-24T15:26:47;3.67;;;2.43;;
3099;SDS011;1560;52.746;13.474;2023-07-24T15:29:16;3.70;;;2.50;;
3099;SDS011;1560;52.746;13.474;2023-07-24T15:31:44;5.33;;;2.90;;
3099;SDS011;1560;52.746;13.474;2023-07-24T15:34:13;4.43;;;2.77;;
3099;SDS011;1560;52.746;13.474;2023-07-24T15:36:42;4.70;;;2.60;;
3099;SDS011;1560;52.746;13.474;2023-07-24T15:39:10;4.90;;;3.10;;
3099;SDS011;1560;52.746;13.474;2023-07-24T15:41:39;3.27;;;2.37;;
3099;SDS011;1560;52.746;13.474;2023-07-24T15:44:07;3.27;;;2.50;;
3099;SDS011;1560;52.746;13.474;2023-07-24T15:46:36;4.03;;;2.77;;
3099;SDS011;1560;52.746;13.474;2023-07-24T15:49:04;5.23;;;3.10;;
3099;SDS011;1560;52.746;13.474;2023-07-24T15:51:33;4.80;;;3.20;;
3099;SDS011;1560;52.746;13.474;2023-07-24T15:54:02;4.30;;;2.90;;
3099;SDS011;1560;52.746;13.474;2023-07-24T15:56:32;3.43;;;2.53;;
3099;SDS011;1560;52.746;13.474;2023-07-24T15:59:01;2.40;;;2.20;;
3099;SDS011;1560;52.746;13.474;2023-07-24T16:01:29;4.17;;;2.50;;
3099;SDS011;1560;52.746;13.474;2023-07-24T16:03:58;4.17;;;2.30;;
3099;SDS011;1560;52.746;13.474;2023-07-24T16:06:26;4.33;;;2.63;;
3099;SDS011;1560;52.746;13.474;2023-07-24T16:08:55;3.70;;;2.70;;
3099;SDS011;1560;52.746;13.474;2023-07-24T16:11:25;6.70;;;4.10;;
3099;SDS011;1560;52.746;13.474;2023-07-24T16:13:54;5.10;;;2.90;;
3099;SDS011;1560;52.746;13.474;2023-07-24T16:16:22;4.03;;;2.80;;
3099;SDS011;1560;52.746;13.474;2023-07-24T16:19:10;4.17;;;2.83;;
3099;SDS011;1560;52.746;13.474;2023-07-24T16:21:39;3.43;;;2.60;;
3099;SDS011;1560;52.746;13.474;2023-07-24T16:24:08;3.07;;;2.37;;
3099;SDS011;1560;52.746;13.474;2023-07-24T16:26:37;3.00;;;2.47;;
3099;SDS011;1560;52.746;13.474;2023-07-24T16:29:06;3.43;;;2.77;;
3099;SDS011;1560;52.746;13.474;2023-07-24T16:31:35;3.60;;;3.00;;
3099;SDS011;1560;52.746;13.474;2023-07-24T16:34:03;2.60;;;2.23;;
3099;SDS011;1560;52.746;13.474;2023-07-24T16:36:32;2.80;;;1.70;;
3099;SDS011;1560;52.746;13.474;2023-07-24T16:39:01;2.50;;;2.10;;
3099;SDS011;1560;52.746;13.474;2023-07-24T16:41:30;2.63;;;2.07;;
3099;SDS011;1560;52.746;13.474;2023-07-24T16:46:35;3.43;;;2.27;;
3099;SDS011;1560;52.746;13.474;2023-07-24T16:49:04;3.50;;;1.63;;
3099;SDS011;1560;52.746;13.474;2023-07-24T16:51:32;3.37;;;1.90;;
3099;SDS011;1560;52.746;13.474;2023-07-24T16:54:01;2.40;;;1.90;;
3099;SDS011;1560;52.746;13.474;2023-07-24T16:56:30;2.70;;;1.70;;
3099;SDS011;1560;52.746;13.474;2023-07-24T16:58:59;2.77;;;1.90;;
3099;SDS011;1560;52.746;13.474;2023-07-24T17:01:28;2.73;;;1.83;;
3099;SDS011;1560;52.746;13.474;2023-07-24T17:03:57;2.43;;;1.60;;
3099;SDS011;1560;52.746;13.474;2023-07-24T17:06:34;3.13;;;1.83;;
3099;SDS011;1560;52.746;13.474;2023-07-24T17:09:03;2.33;;;1.70;;
3099;SDS011;1560;52.746;13.474;2023-07-24T17:11:31;2.53;;;1.60;;
3099;SDS011;1560;52.746;13.474;2023-07-24T17:16:36;2.50;;;1.90;;
3099;SDS011;1560;52.746;13.474;2023-07-24T17:19:05;2.80;;;2.20;;
3099;SDS011;1560;52.746;13.474;2023-07-24T17:21:35;2.77;;;2.10;;
3099;SDS011;1560;52.746;13.474;2023-07-24T17:24:04;2.17;;;1.97;;
3099;SDS011;1560;52.746;13.474;2023-07-24T17:26:33;2.83;;;2.30;;
3099;SDS011;1560;52.746;13.474;2023-07-24T17:31:38;3.17;;;2.30;;
3099;SDS011;1560;52.746;13.474;2023-07-24T17:34:08;3.20;;;2.03;;
3099;SDS011;1560;52.746;13.474;2023-07-24T17:36:36;3.80;;;2.13;;
3099;SDS011;1560;52.746;13.474;2023-07-24T17:39:05;3.40;;;2.30;;
3099;SDS011;1560;52.746;13.474;2023-07-24T17:41:33;2.63;;;1.70;;
3099;SDS011;1560;52.746;13.474;2023-07-24T17:44:02;2.90;;;2.10;;
3099;SDS011;1560;52.746;13.474;2023-07-24T17:46:32;4.57;;;2.03;;
3099;SDS011;1560;52.746;13.474;2023-07-24T17:49:00;6.53;;;2.87;;
3099;SDS011;1560;52.746;13.474;2023-07-24T17:51:29;10.03;;;4.73;;